sensor_id;sensor_type;location;lat;lon;timestamp;pressure;altitude;pressure_sealevel;temperature;humidity
68193;BME280;55012;47.562;18.414;2023-07-22T00:02:22;99315.13;;;16.62;100.00
68193;BME280;55012;47.562;18.414;2023-07-22T00:04:48;99320.22;;;16.67;100.00
68193;BME280;55012;47.562;18.414;2023-07-22T00:07:14;99315.94;;;16.66;100.00
68193;BME280;55012;47.562;18.414;2023-07-22T00:09:41;99243.72;;;16.60;100.00
68193;BME280;55012;47.562;18.414;2023-07-22T00:12:08;99228.50;;;16.55;100.00
68193;BME280;55012;47.562;18.414;2023-07-22T00:14:35;99235.50;;;16.53;100.00
68193;BME280;55012;47.562;18.414;2023-07-22T00:17:01;99213.66;;;16.53;100.00
68193;BME280;55012;47.562;18.414;2023-07-22T00:19:26;99175.81;;;16.51;100.00
68193;BME280;55012;47.562;18.414;2023-07-22T00:21:52;99156.31;;;16.49;100.00
68193;BME280;55012;47.562;18.414;2023-07-22T00:24:17;99160.59;;;16.47;100.00
68193;BME280;55012;47.562;18.414;2023-07-22T00:26:43;99155.13;;;16.47;100.00
68193;BME280;55012;47.562;18.414;2023-07-22T00:29:09;99158.63;;;16.44;100.00
68193;BME280;55012;47.562;18.414;2023-07-22T00:31:34;99159.00;;;16.42;100.00
68193;BME280;55012;47.562;18.414;2023-07-22T00:34:00;99153.53;;;16.39;100.00
68193;BME280;55012;47.562;18.414;2023-07-22T00:36:26;99150.41;;;16.37;100.00
68193;BME280;55012;47.562;18.414;2023-07-22T00:38:51;99152.34;;;16.36;100.00
68193;BME280;55012;47.562;18.414;2023-07-22T00:41:18;99151.97;;;16.34;100.00
68193;BME280;55012;47.562;18.414;2023-07-22T00:43:44;99157.81;;;16.33;100.00
68193;BME280;55012;47.562;18.414;2023-07-22T00:46:09;99151.56;;;16.32;100.00
68193;BME280;55012;47.562;18.414;2023-07-22T00:48:35;99146.50;;;16.31;100.00
68193;BME280;55012;47.562;18.414;2023-07-22T00:51:00;99154.69;;;16.31;100.00
68193;BME280;55012;47.562;18.414;2023-07-22T00:53:26;99149.22;;;16.31;100.00
68193;BME280;55012;47.562;18.414;2023-07-22T00:55:51;99155.44;;;16.27;100.00
68193;BME280;55012;47.562;18.414;2023-07-22T00:58:17;99148.03;;;16.28;100.00
68193;BME280;55012;47.562;18.414;2023-07-22T01:00:42;99145.31;;;16.28;100.00
68193;BME280;55012;47.562;18.414;2023-07-22T01:03:08;99153.91;;;16.34;100.00
68193;BME280;55012;47.562;18.414;2023-07-22T01:05:34;99161.72;;;16.35;100.00
68193;BME280;55012;47.562;18.414;2023-07-22T01:08:02;99143.78;;;16.38;100.00
68193;BME280;55012;47.562;18.414;2023-07-22T01:10:27;99138.72;;;16.40;100.00
68193;BME280;55012;47.562;18.414;2023-07-22T01:12:55;99129.75;;;16.39;100.00
68193;BME280;55012;47.562;18.414;2023-07-22T01:15:21;99125.44;;;16.35;100.00
68193;BME280;55012;47.562;18.414;2023-07-22T01:17:47;99127.00;;;16.32;100.00
68193;BME280;55012;47.562;18.414;2023-07-22T01:20:13;99120.75;;;16.28;100.00
68193;BME280;55012;47.562;18.414;2023-07-22T01:22:42;99116.84;;;16.29;100.00
68193;BME280;55012;47.562;18.414;2023-07-22T01:25:08;99114.91;;;16.33;100.00
68193;BME280;55012;47.562;18.414;2023-07-22T01:27:34;99110.63;;;16.43;100.00
68193;BME280;55012;47.562;18.414;2023-07-22T01:30:00;99104.00;;;16.37;100.00
68193;BME280;55012;47.562;18.414;2023-07-22T01:32:27;99106.31;;;16.27;100.00
68193;BME280;55012;47.562;18.414;2023-07-22T01:34:52;99096.16;;;16.14;100.00
68193;BME280;55012;47.562;18.414;2023-07-22T01:37:18;99105.81;;;15.93;100.00
68193;BME280;55012;47.562;18.414;2023-07-22T01:39:44;99093.66;;;15.77;100.00
68193;BME280;55012;47.562;18.414;2023-07-22T01:42:09;99084.66;;;15.69;100.00
68193;BME280;55012;47.562;18.414;2023-07-22T01:44:35;99088.94;;;15.70;100.00
68193;BME280;55012;47.562;18.414;2023-07-22T01:47:03;99095.59;;;15.72;100.00
68193;BME280;55012;47.562;18.414;2023-07-22T01:49:29;99106.13;;;15.74;100.00
68193;BME280;55012;47.562;18.414;2023-07-22T01:51:54;99118.59;;;15.75;100.00
68193;BME280;55012;47.562;18.414;2023-07-22T01:54:20;99136.91;;;15.78;100.00
68193;BME280;55012;47.562;18.414;2023-07-22T01:56:45;99151.34;;;15.82;100.00
68193;BME280;55012;47.562;18.414;2023-07-22T01:59:11;99164.25;;;15.89;100.00
68193;BME280;55012;47.562;18.414;2023-07-22T02:01:36;99174.41;;;15.92;100.00
68193;BME280;55012;47.562;18.414;2023-07-22T02:04:02;99194.28;;;15.96;100.00
68193;BME280;55012;47.562;18.414;2023-07-22T02:06:27;99202.47;;;15.96;100.00
68193;BME280;55012;47.562;18.414;2023-07-22T02:08:54;99205.97;;;15.93;100.00
68193;BME280;55012;47.562;18.414;2023-07-22T02:11:19;99218.00;;;15.88;100.00
68193;BME280;55012;47.562;18.414;2023-07-22T02:13:45;99218.00;;;15.81;100.00
68193;BME280;55012;47.562;18.414;2023-07-22T02:16:10;99242.91;;;15.80;100.00
68193;BME280;55012;47.562;18.414;2023-07-22T02:18:38;99253.00;;;15.76;100.00
68193;BME280;55012;47.562;18.414;2023-07-22T02:21:04;99265.47;;;15.73;100.00
68193;BME280;55012;47.562;18.414;2023-07-22T02:23:29;99267.75;;;15.64;100.00
68193;BME280;55012;47.562;18.414;2023-07-22T02:25:55;99281.00;;;15.65;100.00
68193;BME280;55012;47.562;18.414;2023-07-22T02:28:21;99300.09;;;15.69;100.00
68193;BME280;55012;47.562;18.414;2023-07-22T02:30:52;99309.91;;;15.77;100.00
68193;BME280;55012;47.562;18.414;2023-07-22T02:33:18;99308.78;;;15.82;100.00
68193;BME280;55012;47.562;18.414;2023-07-22T02:35:44;99296.25;;;15.73;100.00
68193;BME280;55012;47.562;18.414;2023-07-22T02:38:10;99291.81;;;15.58;100.00
68193;BME280;55012;47.562;18.414;2023-07-22T02:40:38;99305.75;;;15.50;100.00
68193;BME280;55012;47.562;18.414;2023-07-22T02:43:04;99322.00;;;15.39;100.00
68193;BME280;55012;47.562;18.414;2023-07-22T02:45:35;99346.03;;;15.30;100.00
68193;BME280;55012;47.562;18.414;2023-07-22T02:48:01;99362.69;;;15.21;100.00
68193;BME280;55012;47.562;18.414;2023-07-22T02:50:27;99380.56;;;15.15;100.00
68193;BME280;55012;47.562;18.414;2023-07-22T02:52:52;99410.06;;;15.09;100.00
68193;BME280;55012;47.562;18.414;2023-07-22T02:55:18;99441.19;;;15.08;100.00
68193;BME280;55012;47.562;18.414;2023-07-22T02:57:44;99467.28;;;15.09;100.00
68193;BME280;55012;47.562;18.414;2023-07-22T03:00:12;99496.88;;;15.11;100.00
68193;BME280;55012;47.562;18.414;2023-07-22T03:02:39;99524.09;;;15.07;100.00
68193;BME280;55012;47.562;18.414;2023-07-22T03:05:06;99542.72;;;15.05;100.00
68193;BME280;55012;47.562;18.414;2023-07-22T03:07:40;99576.16;;;15.02;100.00
68193;BME280;55012;47.562;18.414;2023-07-22T03:10:06;99605.31;;;14.98;100.00
68193;BME280;55012;47.562;18.414;2023-07-22T03:12:33;99642.22;;;14.96;100.00
68193;BME280;55012;47.562;18.414;2023-07-22T03:14:58;99649.59;;;14.95;100.00
68193;BME280;55012;47.562;18.414;2023-07-22T03:17:24;99679.56;;;14.95;100.00
68193;BME280;55012;47.562;18.414;2023-07-22T03:19:50;99712.69;;;14.97;100.00
68193;BME280;55012;47.562;18.414;2023-07-22T03:22:16;99747.75;;;14.99;100.00
68193;BME280;55012;47.562;18.414;2023-07-22T03:24:45;99773.19;;;15.06;100.00
68193;BME280;55012;47.562;18.414;2023-07-22T03:27:12;99807.16;;;15.12;100.00
68193;BME280;55012;47.562;18.414;2023-07-22T03:29:38;99834.78;;;15.11;100.00
68193;BME280;55012;47.562;18.414;2023-07-22T03:32:05;99873.28;;;15.09;100.00
68193;BME280;55012;47.562;18.414;2023-07-22T03:34:31;99904.84;;;15.10;100.00
68193;BME280;55012;47.562;18.414;2023-07-22T03:36:56;99931.31;;;15.10;100.00
68193;BME280;55012;47.562;18.414;2023-07-22T03:39:22;99958.22;;;15.31;100.00
68193;BME280;55012;47.562;18.414;2023-07-22T03:41:48;99988.63;;;15.71;100.00
68193;BME280;55012;47.562;18.414;2023-07-22T03:44:13;99994.88;;;15.91;100.00
68193;BME280;55012;47.562;18.414;2023-07-22T03:46:39;100000.22;;;16.07;100.00
68193;BME280;55012;47.562;18.414;2023-07-22T03:49:04;100000.41;;;16.18;100.00
68193;BME280;55012;47.562;18.414;2023-07-22T03:51:30;99999.50;;;16.33;100.00
68193;BME280;55012;47.562;18.414;2023-07-22T03:53:56;100024.00;;;16.52;100.00
68193;BME280;55012;47.562;18.414;2023-07-22T03:56:21;100051.38;;;16.79;100.00
68193;BME280;55012;47.562;18.414;2023-07-22T03:58:49;100035.31;;;17.00;100.00
68193;BME280;55012;47.562;18.414;2023-07-22T04:01:14;100045.53;;;17.33;100.00
68193;BME280;55012;47.562;18.414;2023-07-22T04:03:40;99978.25;;;17.59;100.00
68193;BME280;55012;47.562;18.414;2023-07-22T04:06:05;99917.63;;;17.90;100.00
68193;BME280;55012;47.562;18.414;2023-07-22T04:08:31;99895.47;;;18.10;100.00
68193;BME280;55012;47.562;18.414;2023-07-22T04:10:57;99949.19;;;18.21;100.00
68193;BME280;55012;47.562;18.414;2023-07-22T04:13:24;100015.78;;;18.29;100.00
68193;BME280;55012;47.562;18.414;2023-07-22T04:15:50;100048.81;;;18.50;100.00
68193;BME280;55012;47.562;18.414;2023-07-22T04:18:16;100096.69;;;18.64;100.00
68193;BME280;55012;47.562;18.414;2023-07-22T04:20:42;100139.88;;;18.74;100.00
68193;BME280;55012;47.562;18.414;2023-07-22T04:23:08;100175.31;;;18.93;100.00
68193;BME280;55012;47.562;18.414;2023-07-22T04:25:41;100214.28;;;19.13;100.00
68193;BME280;55012;47.562;18.414;2023-07-22T04:28:07;100208.53;;;19.29;100.00
68193;BME280;55012;47.562;18.414;2023-07-22T04:30:34;100171.59;;;19.19;100.00
68193;BME280;55012;47.562;18.414;2023-07-22T04:33:00;100063.88;;;19.26;100.00
68193;BME280;55012;47.562;18.414;2023-07-22T04:35:25;99947.88;;;19.22;100.00
68193;BME280;55012;47.562;18.414;2023-07-22T04:37:51;99861.25;;;19.14;100.00
68193;BME280;55012;47.562;18.414;2023-07-22T04:40:16;99798.16;;;19.06;100.00
68193;BME280;55012;47.562;18.414;2023-07-22T04:42:43;99752.66;;;18.84;100.00
68193;BME280;55012;47.562;18.414;2023-07-22T04:45:09;99767.28;;;18.26;100.00
68193;BME280;55012;47.562;18.414;2023-07-22T04:47:35;99851.47;;;17.81;100.00
68193;BME280;55012;47.562;18.414;2023-07-22T04:50:01;99968.66;;;17.72;100.00
68193;BME280;55012;47.562;18.414;2023-07-22T04:52:27;100035.28;;;17.57;100.00
68193;BME280;55012;47.562;18.414;2023-07-22T04:54:52;100100.66;;;17.95;100.00
68193;BME280;55012;47.562;18.414;2023-07-22T04:57:19;100102.91;;;17.86;100.00
68193;BME280;55012;47.562;18.414;2023-07-22T04:59:45;100128.31;;;17.83;100.00
68193;BME280;55012;47.562;18.414;2023-07-22T05:02:10;100131.88;;;17.87;100.00
68193;BME280;55012;47.562;18.414;2023-07-22T05:04:36;100140.25;;;18.02;100.00
68193;BME280;55012;47.562;18.414;2023-07-22T05:07:02;100148.16;;;17.77;100.00
68193;BME280;55012;47.562;18.414;2023-07-22T05:09:27;100154.69;;;17.42;100.00
68193;BME280;55012;47.562;18.414;2023-07-22T05:11:56;100185.53;;;17.16;100.00
68193;BME280;55012;47.562;18.414;2023-07-22T05:14:21;100189.91;;;16.98;100.00
68193;BME280;55012;47.562;18.414;2023-07-22T05:16:46;100224.41;;;16.83;100.00
68193;BME280;55012;47.562;18.414;2023-07-22T05:19:12;100238.91;;;16.68;100.00
68193;BME280;55012;47.562;18.414;2023-07-22T05:21:37;100257.09;;;16.60;100.00
68193;BME280;55012;47.562;18.414;2023-07-22T05:24:03;100264.44;;;16.56;100.00
68193;BME280;55012;47.562;18.414;2023-07-22T05:26:28;100271.84;;;16.55;100.00
68193;BME280;55012;47.562;18.414;2023-07-22T05:28:54;100268.81;;;16.61;100.00
68193;BME280;55012;47.562;18.414;2023-07-22T05:31:19;100268.13;;;16.64;100.00
68193;BME280;55012;47.562;18.414;2023-07-22T05:33:45;100268.63;;;16.69;100.00
68193;BME280;55012;47.562;18.414;2023-07-22T05:36:10;100279.88;;;16.68;100.00
68193;BME280;55012;47.562;18.414;2023-07-22T05:38:35;100275.22;;;16.68;100.00
68193;BME280;55012;47.562;18.414;2023-07-22T05:41:01;100280.06;;;16.75;100.00
68193;BME280;55012;47.562;18.414;2023-07-22T05:43:26;100284.75;;;16.74;100.00
68193;BME280;55012;47.562;18.414;2023-07-22T05:45:52;100286.03;;;16.80;100.00
68193;BME280;55012;47.562;18.414;2023-07-22T05:48:17;100295.50;;;16.87;100.00
68193;BME280;55012;47.562;18.414;2023-07-22T05:50:43;100288.97;;;16.91;100.00
68193;BME280;55012;47.562;18.414;2023-07-22T05:53:09;100289.16;;;17.02;100.00
68193;BME280;55012;47.562;18.414;2023-07-22T05:55:34;100288.78;;;17.03;100.00
68193;BME280;55012;47.562;18.414;2023-07-22T05:57:59;100291.19;;;17.05;100.00
68193;BME280;55012;47.562;18.414;2023-07-22T06:00:31;100281.38;;;17.04;100.00
68193;BME280;55012;47.562;18.414;2023-07-22T06:02:56;100290.88;;;17.10;100.00
68193;BME280;55012;47.562;18.414;2023-07-22T06:05:21;100277.63;;;17.12;100.00
68193;BME280;55012;47.562;18.414;2023-07-22T06:07:47;100282.75;;;17.13;100.00
68193;BME280;55012;47.562;18.414;2023-07-22T06:10:12;100263.72;;;17.21;100.00
68193;BME280;55012;47.562;18.414;2023-07-22T06:12:38;100272.53;;;17.33;100.00
68193;BME280;55012;47.562;18.414;2023-07-22T06:15:04;100257.78;;;17.38;100.00
68193;BME280;55012;47.562;18.414;2023-07-22T06:17:29;100274.97;;;17.38;100.00
68193;BME280;55012;47.562;18.414;2023-07-22T06:19:55;100239.44;;;17.38;100.00
68193;BME280;55012;47.562;18.414;2023-07-22T06:22:20;100240.56;;;17.37;100.00
68193;BME280;55012;47.562;18.414;2023-07-22T06:24:46;100236.63;;;17.35;100.00
68193;BME280;55012;47.562;18.414;2023-07-22T06:27:11;100212.00;;;17.35;100.00
68193;BME280;55012;47.562;18.414;2023-07-22T06:29:36;100223.06;;;17.42;100.00
68193;BME280;55012;47.562;18.414;2023-07-22T06:32:02;100208.81;;;17.56;100.00
68193;BME280;55012;47.562;18.414;2023-07-22T06:34:28;100211.84;;;17.74;100.00
68193;BME280;55012;47.562;18.414;2023-07-22T06:36:53;100202.06;;;17.73;100.00
68193;BME280;55012;47.562;18.414;2023-07-22T06:39:19;100175.75;;;17.68;100.00
68193;BME280;55012;47.562;18.414;2023-07-22T06:41:44;100119.47;;;17.67;100.00
68193;BME280;55012;47.562;18.414;2023-07-22T06:44:09;100098.94;;;17.80;100.00
68193;BME280;55012;47.562;18.414;2023-07-22T06:46:35;100086.91;;;17.88;100.00
68193;BME280;55012;47.562;18.414;2023-07-22T06:49:00;100065.47;;;17.94;100.00
68193;BME280;55012;47.562;18.414;2023-07-22T06:51:26;100034.25;;;17.99;100.00
68193;BME280;55012;47.562;18.414;2023-07-22T06:53:51;100013.53;;;18.01;100.00
68193;BME280;55012;47.562;18.414;2023-07-22T06:56:16;99961.50;;;18.01;100.00
68193;BME280;55012;47.562;18.414;2023-07-22T06:58:42;99938.09;;;18.07;100.00
68193;BME280;55012;47.562;18.414;2023-07-22T07:01:07;99951.88;;;18.18;100.00
68193;BME280;55012;47.562;18.414;2023-07-22T07:03:33;99890.47;;;18.19;100.00
68193;BME280;55012;47.562;18.414;2023-07-22T07:05:58;99875.25;;;18.25;100.00
68193;BME280;55012;47.562;18.414;2023-07-22T07:08:24;99852.63;;;18.35;100.00
68193;BME280;55012;47.562;18.414;2023-07-22T07:10:50;99828.06;;;18.49;100.00
68193;BME280;55012;47.562;18.414;2023-07-22T07:13:16;99807.41;;;18.70;100.00
68193;BME280;55012;47.562;18.414;2023-07-22T07:15:41;99717.78;;;18.74;100.00
68193;BME280;55012;47.562;18.414;2023-07-22T07:18:06;99555.28;;;18.70;100.00
68193;BME280;55012;47.562;18.414;2023-07-22T07:20:32;99455.47;;;18.64;100.00
68193;BME280;55012;47.562;18.414;2023-07-22T07:22:57;99404.56;;;18.59;100.00
68193;BME280;55012;47.562;18.414;2023-07-22T07:25:23;99408.09;;;18.67;100.00
68193;BME280;55012;47.562;18.414;2023-07-22T07:27:48;99440.97;;;18.74;100.00
68193;BME280;55012;47.562;18.414;2023-07-22T07:30:14;99380.69;;;18.74;100.00
68193;BME280;55012;47.562;18.414;2023-07-22T07:32:39;99339.19;;;18.75;100.00
68193;BME280;55012;47.562;18.414;2023-07-22T07:35:06;99355.19;;;18.88;100.00
68193;BME280;55012;47.562;18.414;2023-07-22T07:37:32;99278.78;;;18.93;100.00
68193;BME280;55012;47.562;18.414;2023-07-22T07:39:57;99314.78;;;19.06;100.00
68193;BME280;55012;47.562;18.414;2023-07-22T07:42:26;99233.63;;;19.16;100.00
68193;BME280;55012;47.562;18.414;2023-07-22T07:44:52;99161.91;;;19.17;100.00
68193;BME280;55012;47.562;18.414;2023-07-22T07:47:18;99123.09;;;19.19;100.00
68193;BME280;55012;47.562;18.414;2023-07-22T07:49:43;99045.53;;;19.22;100.00
68193;BME280;55012;47.562;18.414;2023-07-22T07:52:08;98987.88;;;19.29;100.00
68193;BME280;55012;47.562;18.414;2023-07-22T07:54:34;98999.91;;;19.35;100.00
68193;BME280;55012;47.562;18.414;2023-07-22T07:57:00;98971.69;;;19.38;100.00
68193;BME280;55012;47.562;18.414;2023-07-22T07:59:25;98910.09;;;19.43;100.00
68193;BME280;55012;47.562;18.414;2023-07-22T08:01:51;98877.81;;;19.54;100.00
68193;BME280;55012;47.562;18.414;2023-07-22T08:04:16;98841.69;;;19.59;100.00
68193;BME280;55012;47.562;18.414;2023-07-22T08:06:42;98776.94;;;19.65;100.00
68193;BME280;55012;47.562;18.414;2023-07-22T08:09:08;98753.75;;;19.70;100.00
68193;BME280;55012;47.562;18.414;2023-07-22T08:11:36;98760.03;;;19.67;100.00
68193;BME280;55012;47.562;18.414;2023-07-22T08:14:03;98724.44;;;19.63;100.00
68193;BME280;55012;47.562;18.414;2023-07-22T08:16:30;98727.97;;;19.63;100.00
68193;BME280;55012;47.562;18.414;2023-07-22T08:18:55;98718.00;;;19.73;100.00
68193;BME280;55012;47.562;18.414;2023-07-22T08:21:21;98734.25;;;19.84;100.00
68193;BME280;55012;47.562;18.414;2023-07-22T08:23:46;98760.34;;;19.96;100.00
68193;BME280;55012;47.562;18.414;2023-07-22T08:26:12;98738.47;;;20.12;100.00
68193;BME280;55012;47.562;18.414;2023-07-22T08:28:38;98713.13;;;20.24;100.00
68193;BME280;55012;47.562;18.414;2023-07-22T08:31:04;98715.66;;;20.15;100.00
68193;BME280;55012;47.562;18.414;2023-07-22T08:33:30;98715.91;;;20.01;100.00
68193;BME280;55012;47.562;18.414;2023-07-22T08:35:56;98718.97;;;20.06;100.00
68193;BME280;55012;47.562;18.414;2023-07-22T08:38:21;98731.84;;;20.09;100.00
68193;BME280;55012;47.562;18.414;2023-07-22T08:40:49;98722.78;;;20.12;100.00
68193;BME280;55012;47.562;18.414;2023-07-22T08:43:20;98736.38;;;20.19;100.00
68193;BME280;55012;47.562;18.414;2023-07-22T08:45:48;98700.59;;;20.23;100.00
68193;BME280;55012;47.562;18.414;2023-07-22T08:48:16;98718.78;;;20.37;100.00
68193;BME280;55012;47.562;18.414;2023-07-22T08:50:51;98714.97;;;20.51;100.00
68193;BME280;55012;47.562;18.414;2023-07-22T08:53:18;98697.13;;;20.59;100.00
68193;BME280;55012;47.562;18.414;2023-07-22T08:55:46;98759.09;;;20.63;100.00
68193;BME280;55012;47.562;18.414;2023-07-22T08:58:15;98646.31;;;20.67;100.00
68193;BME280;55012;47.562;18.414;2023-07-22T09:00:42;98421.19;;;20.72;100.00
68193;BME280;55012;47.562;18.414;2023-07-22T09:03:08;97876.72;;;20.70;100.00
68193;BME280;55012;47.562;18.414;2023-07-22T09:05:35;97820.56;;;20.59;100.00
68193;BME280;55012;47.562;18.414;2023-07-22T09:08:02;97714.78;;;20.54;100.00
68193;BME280;55012;47.562;18.414;2023-07-22T09:10:28;97661.22;;;20.59;100.00
68193;BME280;55012;47.562;18.414;2023-07-22T09:12:54;97788.88;;;20.67;100.00
68193;BME280;55012;47.562;18.414;2023-07-22T09:15:20;97897.47;;;20.71;100.00
68193;BME280;55012;47.562;18.414;2023-07-22T09:17:46;97975.28;;;20.81;100.00
68193;BME280;55012;47.562;18.414;2023-07-22T09:20:13;98022.22;;;20.87;100.00
68193;BME280;55012;47.562;18.414;2023-07-22T09:22:46;98139.84;;;20.92;100.00
68193;BME280;55012;47.562;18.414;2023-07-22T09:25:21;98258.97;;;20.89;100.00
68193;BME280;55012;47.562;18.414;2023-07-22T09:27:48;98324.16;;;20.88;100.00
68193;BME280;55012;47.562;18.414;2023-07-22T09:30:29;98352.56;;;20.98;100.00
68193;BME280;55012;47.562;18.414;2023-07-22T09:32:59;98349.16;;;20.94;100.00
68193;BME280;55012;47.562;18.414;2023-07-22T09:35:30;98341.44;;;21.01;100.00
68193;BME280;55012;47.562;18.414;2023-07-22T09:37:56;98377.88;;;21.06;100.00
68193;BME280;55012;47.562;18.414;2023-07-22T09:40:26;98399.38;;;21.11;100.00
68193;BME280;55012;47.562;18.414;2023-07-22T09:42:57;98472.84;;;21.10;100.00
68193;BME280;55012;47.562;18.414;2023-07-22T09:45:30;98434.34;;;21.10;100.00
68193;BME280;55012;47.562;18.414;2023-07-22T09:47:56;98537.38;;;21.06;100.00
68193;BME280;55012;47.562;18.414;2023-07-22T09:50:23;98493.38;;;21.06;100.00
68193;BME280;55012;47.562;18.414;2023-07-22T09:52:56;98478.28;;;21.26;100.00
68193;BME280;55012;47.562;18.414;2023-07-22T09:55:25;98593.81;;;21.26;100.00
68193;BME280;55012;47.562;18.414;2023-07-22T09:57:58;98614.13;;;21.33;100.00
68193;BME280;55012;47.562;18.414;2023-07-22T10:00:28;98675.25;;;21.40;100.00
68193;BME280;55012;47.562;18.414;2023-07-22T10:02:56;98704.31;;;21.41;100.00
68193;BME280;55012;47.562;18.414;2023-07-22T10:05:22;98710.53;;;21.45;100.00
68193;BME280;55012;47.562;18.414;2023-07-22T10:07:53;98750.94;;;21.48;100.00
68193;BME280;55012;47.562;18.414;2023-07-22T10:10:24;98744.47;;;21.55;100.00
68193;BME280;55012;47.562;18.414;2023-07-22T10:12:50;98759.44;;;21.70;100.00
68193;BME280;55012;47.562;18.414;2023-07-22T10:15:16;98785.94;;;21.80;100.00
68193;BME280;55012;47.562;18.414;2023-07-22T10:17:45;98823.53;;;21.87;100.00
68193;BME280;55012;47.562;18.414;2023-07-22T10:20:12;98835.22;;;21.91;100.00
68193;BME280;55012;47.562;18.414;2023-07-22T10:22:43;98854.44;;;21.78;100.00
68193;BME280;55012;47.562;18.414;2023-07-22T10:25:17;98816.50;;;21.70;100.00
68193;BME280;55012;47.562;18.414;2023-07-22T10:27:43;98787.16;;;21.63;100.00
68193;BME280;55012;47.562;18.414;2023-07-22T10:30:13;98765.38;;;21.69;100.00
68193;BME280;55012;47.562;18.414;2023-07-22T10:32:45;98840.06;;;21.71;100.00
68193;BME280;55012;47.562;18.414;2023-07-22T10:35:16;98911.13;;;21.76;100.00
68193;BME280;55012;47.562;18.414;2023-07-22T10:37:45;98887.13;;;21.93;100.00
68193;BME280;55012;47.562;18.414;2023-07-22T10:40:18;98887.72;;;22.00;100.00
68193;BME280;55012;47.562;18.414;2023-07-22T10:43:06;98888.53;;;22.17;100.00
68193;BME280;55012;47.562;18.414;2023-07-22T10:45:33;98872.78;;;22.18;100.00
68193;BME280;55012;47.562;18.414;2023-07-22T10:48:07;98897.75;;;22.43;100.00
68193;BME280;55012;47.562;18.414;2023-07-22T10:50:42;98936.50;;;22.36;100.00
68193;BME280;55012;47.562;18.414;2023-07-22T10:53:31;98928.41;;;22.29;100.00
68193;BME280;55012;47.562;18.414;2023-07-22T10:58:32;98907.78;;;22.01;100.00
68193;BME280;55012;47.562;18.414;2023-07-22T11:06:34;98864.59;;;22.14;100.00
68193;BME280;55012;47.562;18.414;2023-07-22T11:08:59;98920.56;;;22.27;100.00
68193;BME280;55012;47.562;18.414;2023-07-22T11:14:23;98910.31;;;22.44;100.00
68193;BME280;55012;47.562;18.414;2023-07-22T11:16:50;98904.53;;;22.55;100.00
68193;BME280;55012;47.562;18.414;2023-07-22T11:19:17;99017.13;;;22.56;100.00
68193;BME280;55012;47.562;18.414;2023-07-22T11:21:47;98970.50;;;22.62;100.00
68193;BME280;55012;47.562;18.414;2023-07-22T11:24:13;98977.31;;;22.57;100.00
68193;BME280;55012;47.562;18.414;2023-07-22T11:26:39;98988.69;;;22.43;100.00
68193;BME280;55012;47.562;18.414;2023-07-22T11:29:08;98974.06;;;22.30;100.00
68193;BME280;55012;47.562;18.414;2023-07-22T11:31:42;99020.91;;;22.30;100.00
68193;BME280;55012;47.562;18.414;2023-07-22T11:36:44;99074.38;;;22.32;100.00
68193;BME280;55012;47.562;18.414;2023-07-22T11:39:14;99050.97;;;22.40;100.00
68193;BME280;55012;47.562;18.414;2023-07-22T11:41:41;98991.97;;;22.54;100.00
68193;BME280;55012;47.562;18.414;2023-07-22T11:44:08;99029.00;;;22.53;100.00
68193;BME280;55012;47.562;18.414;2023-07-22T11:46:47;99050.63;;;22.38;100.00
68193;BME280;55012;47.562;18.414;2023-07-22T11:49:13;99048.97;;;22.41;100.00
68193;BME280;55012;47.562;18.414;2023-07-22T11:51:42;99080.25;;;22.51;100.00
68193;BME280;55012;47.562;18.414;2023-07-22T11:54:08;99060.78;;;22.58;100.00
68193;BME280;55012;47.562;18.414;2023-07-22T11:56:33;99122.16;;;22.62;100.00
68193;BME280;55012;47.562;18.414;2023-07-22T11:58:59;99113.94;;;22.58;100.00
68193;BME280;55012;47.562;18.414;2023-07-22T12:01:31;99094.41;;;22.69;100.00
68193;BME280;55012;47.562;18.414;2023-07-22T12:03:57;99134.03;;;22.75;100.00
68193;BME280;55012;47.562;18.414;2023-07-22T12:06:25;99118.63;;;22.78;100.00
68193;BME280;55012;47.562;18.414;2023-07-22T12:08:52;99089.75;;;22.82;100.00
68193;BME280;55012;47.562;18.414;2023-07-22T12:11:24;99060.66;;;22.97;100.00
68193;BME280;55012;47.562;18.414;2023-07-22T12:14:12;99063.31;;;23.01;100.00
68193;BME280;55012;47.562;18.414;2023-07-22T12:16:40;99107.28;;;22.92;100.00
68193;BME280;55012;47.562;18.414;2023-07-22T12:19:08;99089.72;;;23.02;100.00
68193;BME280;55012;47.562;18.414;2023-07-22T12:21:34;99102.00;;;23.14;100.00
68193;BME280;55012;47.562;18.414;2023-07-22T12:24:00;99030.66;;;23.29;100.00
68193;BME280;55012;47.562;18.414;2023-07-22T12:26:26;99021.06;;;23.33;100.00
68193;BME280;55012;47.562;18.414;2023-07-22T12:28:51;99025.72;;;23.36;100.00
68193;BME280;55012;47.562;18.414;2023-07-22T12:31:17;99021.06;;;23.33;100.00
68193;BME280;55012;47.562;18.414;2023-07-22T12:33:42;99042.38;;;23.33;100.00
68193;BME280;55012;47.562;18.414;2023-07-22T12:36:08;99056.09;;;23.36;100.00
68193;BME280;55012;47.562;18.414;2023-07-22T12:38:34;99029.28;;;23.49;100.00
68193;BME280;55012;47.562;18.414;2023-07-22T12:41:00;99049.75;;;23.52;100.00
68193;BME280;55012;47.562;18.414;2023-07-22T12:43:25;99062.47;;;23.33;100.00
68193;BME280;55012;47.562;18.414;2023-07-22T12:45:51;99064.56;;;23.29;100.00
68193;BME280;55012;47.562;18.414;2023-07-22T12:48:16;99090.31;;;23.39;100.00
68193;BME280;55012;47.562;18.414;2023-07-22T12:50:43;99075.22;;;23.43;100.00